Nearby METAR Reports

 

KSJC - San Jose, California, USA
Distance from station: NE 9mi, 14km
Updated: Mon, Nov-20-2017 9:53pm CST
Mostly cloudy
Mostly cloudy
 Wind from N
Wind: N 3 mph , 6 km/h
Temperature: 64°F , 18°C
Dew Point: 52°F , 11°C
Humidity: 64%
Barometer: 30.09 inHg , 1019 hPa
Clouds: Mostly cloudy
Visibility: 10 miles , 16 km
Cloud details: Few Clouds 1000 ft
Partly cloudy 7500 ft
Mostly cloudy 12000 ft
2017/11/21 03:53 KSJC 210353Z 36003KT 10SM FEW010 SCT075 BKN120 18/11 A3009 RMK AO2 SLP187 T01780106
KNUQ - Moffett Nas/Mtn, California, USA
Distance from station: N 9mi, 14km
Updated: Mon, Nov-20-2017 9:56pm CST
Clear
Clear
 Wind from calm
Wind: Calm
Temperature: 63°F , 17°C
Dew Point: 52°F , 11°C
Humidity: 68%
Barometer: 30.10 inHg , 1019.3 hPa
Clouds: Clear
Visibility: 10 miles , 16 km
2017/11/21 03:56 KNUQ 210356Z 00000KT 10SM CLR 17/11 A3010 RMK AO2 SLP194 T01670111
 
KPAO - Palo Alto, California, USA
Distance from station: NNW 14mi, 23km
Updated: Mon, Nov-20-2017 9:47pm CST
Partly cloudy
Partly cloudy
 Wind from calm
Wind: Calm
Temperature: 61°F , 16°C
Dew Point: 54°F , 12°C
Humidity: 77%
Barometer: 30.09 inHg , 1019 hPa
Clouds: Partly cloudy
Visibility: 10 miles , 16 km
Cloud details: Partly cloudy 7000 ft
2017/11/21 03:47 KPAO 210347Z 00000KT 10SM SCT070 16/12 A3009
KRHV - San Jose/Reid, California, USA
Distance from station: ENE 12mi, 19km
Updated: Mon, Nov-20-2017 9:47pm CST
Mostly cloudy
Mostly cloudy
 Wind from calm
Wind: Calm
Temperature: 63°F , 17°C
Dew Point: 52°F , 11°C
Humidity: 68%
Barometer: 30.07 inHg , 1018.3 hPa
Clouds: Mostly cloudy
Visibility: 10 miles , 16 km
Cloud details: Partly cloudy 7500 ft
Mostly cloudy 11000 ft
2017/11/21 03:47 KRHV 210347Z 00000KT 10SM SCT075 BKN110 17/11 A3007
 
KOAK - Oakland, California, USA
Distance from station: NNW 31mi, 50km
Updated: Mon, Nov-20-2017 9:53pm CST
Mostly cloudy
Mostly cloudy
 Wind from NW
Wind: NW 5 mph , 7 km/h
Temperature: 59°F , 15°C
Dew Point: 54°F , 12°C
Humidity: 82%
Barometer: 30.10 inHg , 1019.3 hPa
Clouds: Mostly cloudy
Visibility: 10 miles , 16 km
Cloud details: Few Clouds 3000 ft
Mostly cloudy 16000 ft
2017/11/21 03:53 KOAK 210353Z 32004KT 10SM FEW030 BKN160 15/12 A3010 RMK AO2 SLP193 T01500117
KSQL - San Carlos Airpo, California, USA
Distance from station: NW 21mi, 34km
Updated: Mon, Nov-20-2017 9:54pm CST
Mostly cloudy
Mostly cloudy
 Wind from varies
Wind: varies 3 mph , 6 km/h
Temperature: 63°F , 17°C
Dew Point: 52°F , 11°C
Humidity: 68%
Barometer: 30.10 inHg , 1019.3 hPa
Clouds: Mostly cloudy
Visibility: 10 miles , 16 km
Cloud details: Partly cloudy 3000 ft
Mostly cloudy 15000 ft
2017/11/21 03:54 KSQL 210354Z VRB03KT 10SM SCT030 BKN150 17/11 A3010
 
KSFO - San Francisco, California, USA
Distance from station: NW 30mi, 49km
Updated: Mon, Nov-20-2017 9:56pm CST
Mostly cloudy
Mostly cloudy
 Wind from WNW
Wind: WNW 3 mph , 6 km/h
Temperature: 61°F , 16°C
Dew Point: 52°F , 11°C
Humidity: 72%
Barometer: 30.10 inHg , 1019.3 hPa
Clouds: Mostly cloudy
Visibility: 10 miles , 16 km
Cloud details: Few Clouds 3100 ft
Mostly cloudy 15000 ft
2017/11/21 03:56 KSFO 210356Z 29003KT 10SM FEW031 BKN150 16/11 A3010 RMK AO2 SLP191 T01610111
KE16 - San Martin, California, USA
Distance from station: ESE 27mi, 43km
Updated: Mon, Nov-20-2017 9:55pm CST
Clear
Clear
 Wind from calm
Wind: Calm
Temperature: 59°F , 15°C
Dew Point: 54°F , 12°C
Humidity: 82%
Barometer: 30.11 inHg , 1019.6 hPa
Clouds: Clear
Visibility: 10 miles , 16 km
2017/11/21 03:55 KE16 210355Z AUTO 00000KT 10SM CLR 15/12 A3011 RMK AO2 PWINO PNO
 
KWVI - Watsonville, California, USA
Distance from station: SSE 27mi, 44km
Updated: Mon, Nov-20-2017 9:53pm CST
Clear
Clear
 Wind from calm
Wind: Calm
Temperature: 61°F , 16°C
Dew Point: 57°F , 14°C
Humidity: 88%
Barometer: 30.09 inHg , 1019 hPa
Clouds: Clear
Visibility: 10 miles , 16 km
2017/11/21 03:53 KWVI 210353Z AUTO 00000KT 10SM CLR 16/14 A3009 RMK AO2 SLP188 T01560139
KHAF - Half Moon Bay, California, USA
Distance from station: WNW 31mi, 50km
Updated: Mon, Nov-20-2017 10:15pm CST
Few Clouds
Few Clouds
 Wind from WNW
Wind: WNW 5 mph , 7 km/h
Temperature: 57°F , 14°C
Dew Point: 55°F , 13°C
Humidity: 94%
Barometer: 30.08 inHg , 1018.6 hPa
Clouds: Few Clouds
Visibility: 10 miles , 16 km
Cloud details: Few Clouds 300 ft
2017/11/21 04:15 KHAF 210415Z AUTO 29004KT 10SM FEW003 14/13 A3008 RMK AO2
 
KHWD - Hayward, California, USA
Distance from station: N 28mi, 44km
Updated: Mon, Nov-20-2017 9:54pm CST
Clear
Clear
 Wind from SSW
Wind: SSW 5 mph , 7 km/h
Temperature: 61°F , 16°C
Dew Point: 52°F , 11°C
Humidity: 72%
Barometer: 30.09 inHg , 1019 hPa
Clouds: Clear
Visibility: 10 miles , 16 km
2017/11/21 03:54 KHWD 210354Z 21004KT 10SM CLR 16/11 A3009 RMK AO2 SLP200 T01560111
KLVK - Livermore, California, USA
Distance from station: NNE 31mi, 51km
Updated: Mon, Nov-20-2017 9:53pm CST
Haze, Clear
Haze, Clear
 Wind from NE
Wind: NE 9 mph , 15 km/h
Temperature: 61°F , 16°C
Dew Point: 50°F , 10°C
Humidity: 68%
Barometer: 30.09 inHg , 1019 hPa
Summary: Haze
Clouds: Clear
Visibility: 6 miles , 10 km
2017/11/21 03:53 KLVK 210353Z 05008KT 6SM HZ CLR 16/10 A3009 RMK AO2 SLP187 T01560100